.
WxDataArchive / Data Records for 2015-01-20
2015-01-19 January 2015 2015-01-21

Data Records for Tuesday, 20 January 2015

Time	Temp	Chill	HIndex	Humid	Dewpt	 Wind 	HiWind	WindDir	Rain 	Barom
-----	----	-----	------	-----	-----	------	------	-------	-----	-----
00:00	32.8	32.8	32.8	89	29.9	0	0	---	0.00	29.945 
00:05	32.7	32.7	32.7	89	29.8	0	0	---	0.00	29.945 
00:10	32.7	32.7	32.7	89	29.8	0	0	---	0.00	29.945 
00:15	32.5	32.5	32.5	89	29.6	0	0	---	0.00	29.938 
00:20	32.4	32.4	32.4	89	29.5	0	0	---	0.00	29.938 
00:25	32.4	32.4	32.4	89	29.5	0	0	---	0.00	29.938 
00:30	32.2	32.2	32.2	89	29.3	0	0	---	0.00	29.935 
00:35	32.1	32.1	32.1	89	29.2	0	0	---	0.00	29.935 
00:40	32.1	32.1	32.1	89	29.2	0	0	---	0.00	29.935 
00:45	31.9	31.9	31.9	89	29.0	0	0	---	0.00	29.931 
00:50	31.9	31.9	31.9	89	29.0	0	0	---	0.00	29.931 
00:55	31.9	31.9	31.9	89	29.0	0	0	---	0.00	29.931 
01:00	31.8	31.8	31.8	89	28.9	0	0	---	0.00	29.926 
01:05	31.8	31.8	31.8	90	29.2	0	0	---	0.00	29.926 
01:10	31.8	31.8	31.8	90	29.2	0	0	---	0.00	29.926 
01:15	31.8	31.8	31.8	90	29.2	0	0	---	0.00	29.915 
01:20	31.8	31.8	31.8	90	29.2	0	0	---	0.00	29.915 
01:25	31.8	31.8	31.8	90	29.2	0	0	---	0.00	29.915 
01:30	31.8	31.8	31.8	90	29.2	0	0	---	0.00	29.909 
01:35	31.8	31.8	31.8	90	29.2	0	0	---	0.00	29.909 
01:40	31.8	31.8	31.8	90	29.2	0	0	---	0.00	29.909 
01:45	31.8	31.8	31.8	90	29.2	0	0	---	0.00	29.906 
01:50	31.8	31.8	31.8	91	29.5	0	0	---	0.00	29.906 
01:55	31.8	31.8	31.8	91	29.5	0	0	---	0.00	29.906 
02:00	31.8	31.8	31.8	91	29.5	0	0	---	0.00	29.902 
02:05	31.8	31.8	31.8	91	29.5	0	1	292	0.00	29.902 
02:10	31.8	31.8	31.8	91	29.5	0	0	---	0.00	29.902 
02:15	31.8	31.8	31.8	91	29.5	0	0	---	0.00	29.899 
02:20	31.6	31.6	31.6	91	29.3	0	0	---	0.00	29.899 
02:25	31.6	31.6	31.6	91	29.3	0	0	---	0.00	29.899 
02:30	31.6	31.6	31.6	91	29.3	0	0	---	0.00	29.893 
02:35	31.6	31.6	31.6	91	29.3	0	1	292	0.00	29.893 
02:40	31.6	31.6	31.6	91	29.3	0	0	---	0.00	29.893 
02:45	31.5	31.5	31.5	91	29.2	0	1	292	0.00	29.889 
02:50	31.5	31.5	31.5	91	29.2	0	2	292	0.00	29.889 
02:55	31.6	31.6	31.6	91	29.3	0	2	292	0.00	29.889 
03:00	31.6	31.6	31.6	91	29.3	0	0	---	0.00	29.884 
03:05	31.6	31.6	31.6	91	29.3	0	1	292	0.00	29.884 
03:10	31.6	31.6	31.6	91	29.3	0	0	---	0.00	29.884 
03:15	31.8	31.8	31.8	91	29.5	0	1	292	0.00	29.880 
03:20	31.8	31.8	31.8	91	29.5	0	2	292	0.00	29.880 
03:25	31.8	31.8	31.8	91	29.5	0	1	292	0.00	29.880 
03:30	31.8	31.8	31.8	91	29.5	0	2	292	0.00	29.866 
03:35	31.8	31.8	31.8	91	29.5	0	2	292	0.00	29.866 
03:40	31.8	31.8	31.8	91	29.5	0	3	292	0.00	29.866 
03:45	31.8	31.8	31.8	91	29.5	0	1	292	0.00	29.875 
03:50	31.8	31.8	31.8	91	29.5	0	0	---	0.00	29.875 
03:55	31.8	31.8	31.8	91	29.5	0	0	---	0.00	29.875 
04:00	31.8	31.8	31.8	91	29.5	0	0	---	0.00	29.876 
04:05	31.8	31.8	31.8	91	29.5	0	0	---	0.00	29.876 
04:10	31.6	31.6	31.6	91	29.3	0	0	---	0.00	29.876 
04:15	31.6	31.6	31.6	91	29.3	0	0	---	0.00	29.874 
04:20	31.6	31.6	31.6	91	29.3	0	0	---	0.00	29.874 
04:25	31.6	31.6	31.6	91	29.3	0	1	292	0.00	29.874 
04:30	31.6	31.6	31.6	92	29.5	0	0	---	0.00	29.875 
04:35	31.6	31.6	31.6	92	29.5	0	0	---	0.00	29.875 
04:40	31.6	31.6	31.6	92	29.5	0	1	292	0.00	29.875 
04:45	31.6	31.6	31.6	92	29.5	0	1	292	0.00	29.874 
04:50	31.6	31.6	31.6	92	29.5	0	1	292	0.00	29.874 
04:55	31.6	31.6	31.6	92	29.5	0	1	292	0.00	29.874 
05:00	31.6	31.6	31.6	92	29.5	0	0	---	0.00	29.879 
05:05	31.6	31.6	31.6	92	29.5	0	0	---	0.00	29.879 
05:10	31.5	31.5	31.5	92	29.4	0	1	292	0.00	29.879 
05:15	31.5	31.5	31.5	92	29.4	0	2	292	0.00	29.878 
05:20	31.5	31.5	31.5	92	29.4	0	2	292	0.00	29.878 
05:25	31.5	31.5	31.5	92	29.4	0	1	292	0.00	29.878 
05:30	31.5	31.5	31.5	92	29.4	0	0	---	0.00	29.877 
05:35	31.5	31.5	31.5	92	29.4	0	1	292	0.00	29.877 
05:40	31.5	31.5	31.5	92	29.4	0	1	292	0.00	29.877 
05:45	31.5	31.5	31.5	92	29.4	0	0	---	0.00	29.877 
05:50	31.5	31.5	31.5	92	29.4	0	1	292	0.00	29.877 
05:55	31.5	31.5	31.5	92	29.4	0	1	292	0.00	29.877 
06:00	31.5	31.5	31.5	92	29.4	0	2	292	0.00	29.875 
06:05	31.5	31.5	31.5	92	29.4	0	3	292	0.00	29.875 
06:10	31.3	31.3	31.3	92	29.3	0	1	292	0.00	29.875 
06:15	31.3	31.3	31.3	92	29.3	0	1	292	0.00	29.879 
06:20	31.3	31.3	31.3	92	29.3	0	2	292	0.00	29.879 
06:25	31.3	31.3	31.3	93	29.5	0	1	292	0.00	29.879 
06:30	31.3	31.3	31.3	93	29.5	1	2	292	0.00	29.872 
06:35	31.5	31.5	31.5	93	29.7	1	3	68	0.00	29.872 
06:40	31.5	31.5	31.5	93	29.7	0	2	68	0.00	29.872 
06:45	31.5	31.5	31.5	93	29.7	1	3	68	0.00	29.869 
06:50	31.5	31.5	31.5	93	29.7	1	3	68	0.00	29.869 
06:55	31.5	31.5	31.5	93	29.7	1	2	68	0.00	29.869 
07:00	31.5	31.5	31.5	93	29.7	1	2	68	0.00	29.879 
07:05	31.5	31.5	31.5	93	29.7	0	1	68	0.00	29.879 
07:10	31.5	31.5	31.5	93	29.7	0	0	---	0.00	29.879 
07:15	31.6	31.6	31.6	93	29.8	0	1	68	0.00	29.894 
07:20	31.6	31.6	31.6	93	29.8	0	0	---	0.00	29.894 
07:25	31.6	31.6	31.6	93	29.8	0	0	---	0.00	29.894 
07:30	31.6	31.6	31.6	93	29.8	0	0	---	0.00	29.907 
07:35	31.6	31.6	31.6	93	29.8	0	2	68	0.00	29.907 
07:40	31.6	31.6	31.6	93	29.8	0	3	68	0.00	29.907 
07:45	31.6	31.6	31.6	93	29.8	0	0	---	0.00	29.905 
07:50	31.6	31.6	31.6	93	29.8	0	0	---	0.00	29.905 
07:55	31.6	31.6	31.6	93	29.8	0	2	68	0.00	29.905 
08:00	31.6	31.6	31.6	93	29.8	1	3	68	0.00	29.905 
08:05	31.6	31.6	31.6	93	29.8	0	1	68	0.00	29.905 
08:10	31.6	31.6	31.6	93	29.8	1	2	68	0.00	29.905 
08:15	31.6	31.6	31.6	93	29.8	0	3	68	0.00	29.911 
08:20	31.6	31.6	31.6	93	29.8	1	3	68	0.00	29.911 
08:25	31.6	31.6	31.6	94	30.1	1	2	68	0.00	29.911 
08:30	31.6	31.6	31.6	94	30.1	1	3	68	0.00	29.902 
08:35	31.6	31.6	31.6	94	30.1	1	3	68	0.00	29.902 
08:40	31.6	31.6	31.6	94	30.1	0	2	68	0.00	29.902 
08:45	31.6	31.6	31.6	94	30.1	0	2	68	0.00	29.914 
08:50	31.6	31.6	31.6	94	30.1	1	2	68	0.00	29.914 
08:55	31.6	31.6	31.6	94	30.1	1	2	68	0.00	29.914 
09:00	31.6	31.6	31.6	94	30.1	0	2	68	0.00	29.916 
09:05	31.6	31.6	31.6	94	30.1	0	2	68	0.00	29.916 
09:10	31.8	31.8	31.8	94	30.3	0	1	68	0.00	29.916 
09:15	31.8	31.8	31.8	94	30.3	0	2	68	0.00	29.913 
09:20	31.8	31.8	31.8	94	30.3	0	2	68	0.00	29.913 
09:25	31.8	31.8	31.8	94	30.3	0	2	68	0.00	29.913 
09:30	31.9	31.9	31.9	94	30.4	0	1	68	0.00	29.921 
09:35	31.9	31.9	31.9	94	30.4	1	2	68	0.00	29.921 
09:40	31.9	31.9	31.9	94	30.4	0	2	68	0.00	29.921 
09:45	32.1	32.1	32.1	94	30.6	0	2	68	0.00	29.922 
09:50	32.1	32.1	32.1	94	30.6	1	3	68	0.00	29.922 
09:55	32.1	32.1	32.1	94	30.6	1	3	68	0.00	29.922 
10:00	32.2	32.2	32.2	94	30.7	0	1	68	0.00	29.925 
10:05	32.2	32.2	32.2	94	30.7	0	2	68	0.00	29.925 
10:10	32.4	32.4	32.4	94	30.9	0	0	---	0.00	29.925 
10:15	32.4	32.4	32.4	94	30.9	1	2	68	0.00	29.929 
10:20	32.4	32.4	32.4	94	30.9	0	2	68	0.00	29.929 
10:25	32.5	32.5	32.5	94	31.0	0	2	68	0.00	29.929 
10:30	32.5	32.5	32.5	94	31.0	0	2	68	0.00	29.932 
10:35	32.5	32.5	32.5	94	31.0	1	4	68	0.00	29.932 
10:40	32.7	32.7	32.7	94	31.2	1	4	68	0.00	29.932 
10:45	32.7	32.7	32.7	94	31.2	1	3	68	0.00	29.935 
10:50	32.7	32.7	32.7	94	31.2	1	4	68	0.00	29.935 
10:55	32.7	32.7	32.7	94	31.2	1	3	68	0.00	29.935 
11:00	32.8	32.8	32.8	94	31.3	1	3	68	0.00	29.940 
11:05	32.9	32.9	32.9	94	31.4	1	4	68	0.00	29.940 
11:10	32.8	32.8	32.8	94	31.3	2	5	68	0.00	29.940 
11:15	32.9	32.9	32.9	94	31.4	1	3	68	0.00	29.937 
11:20	33.1	33.1	33.1	94	31.6	1	3	68	0.00	29.937 
11:25	33.4	33.4	33.4	94	31.9	1	3	68	0.01	29.937 
11:30	33.4	33.4	33.4	94	31.9	1	3	68	0.00	29.935 
11:35	33.5	33.5	33.5	94	32.0	1	4	68	0.00	29.935 
11:40	33.7	33.7	33.7	94	32.2	1	4	68	0.00	29.935 
11:45	33.8	33.8	33.8	94	32.3	1	3	68	0.00	29.937 
11:50	34.0	34.0	34.0	94	32.5	0	3	68	0.00	29.937 
11:55	34.1	34.1	34.1	94	32.6	0	2	68	0.00	29.937 
12:00	34.3	34.3	34.3	93	32.5	1	4	68	0.00	29.929 
12:05	34.3	34.3	34.3	93	32.5	2	5	68	0.00	29.929 
12:10	34.4	34.4	34.4	93	32.6	1	3	68	0.01	29.929 
12:15	34.4	34.4	34.4	93	32.6	1	4	68	0.00	29.932 
12:20	34.3	34.3	34.3	93	32.5	1	3	68	0.00	29.932 
12:25	34.1	34.1	34.1	93	32.3	1	4	68	0.00	29.932 
12:30	34.0	34.0	34.0	93	32.2	1	4	68	0.00	29.926 
12:35	34.1	34.1	34.1	93	32.3	1	3	68	0.00	29.926 
12:40	34.3	34.3	34.3	93	32.5	1	4	68	0.00	29.926 
12:45	34.4	34.4	34.4	93	32.6	1	4	68	0.00	29.923 
12:50	34.4	34.4	34.4	92	32.3	1	6	90	0.00	29.923 
12:55	34.4	34.4	34.4	92	32.3	1	4	90	0.00	29.923 
13:00	34.4	34.4	34.4	92	32.3	1	5	90	0.00	29.921 
13:05	34.3	34.3	34.3	92	32.2	2	5	90	0.00	29.921 
13:10	34.3	34.3	34.3	92	32.2	0	2	90	0.00	29.921 
13:15	34.3	34.3	34.3	92	32.2	2	4	90	0.00	29.920 
13:20	34.3	34.3	34.3	92	32.2	2	4	90	0.00	29.920 
13:25	34.3	34.3	34.3	92	32.2	2	5	90	0.00	29.920 
13:30	34.1	34.1	34.1	92	32.0	1	6	90	0.00	29.920 
13:35	34.1	34.1	34.1	92	32.0	2	4	90	0.00	29.920 
13:40	34.1	34.1	34.1	92	32.0	2	5	90	0.00	29.920 
13:45	34.0	34.0	34.0	92	31.9	2	5	90	0.00	29.917 
13:50	34.1	34.1	34.1	92	32.0	2	6	90	0.00	29.917 
13:55	34.1	34.1	34.1	92	32.0	1	4	90	0.00	29.917 
14:00	34.1	34.1	34.1	92	32.0	2	6	90	0.00	29.915 
14:05	34.1	34.1	34.1	92	32.0	2	4	90	0.00	29.915 
14:10	34.3	34.3	34.3	92	32.2	2	4	90	0.00	29.915 
14:15	34.4	34.4	34.4	92	32.3	0	3	90	0.00	29.913 
14:20	34.4	34.4	34.4	91	32.0	2	7	90	0.00	29.913 
14:25	34.3	34.3	34.3	91	32.0	2	7	90	0.00	29.913 
14:30	34.3	34.3	34.3	91	32.0	3	9	90	0.00	29.918 
14:35	34.1	34.1	34.1	91	31.8	3	7	90	0.00	29.918 
14:40	34.1	34.1	34.1	91	31.8	1	6	90	0.00	29.918 
14:45	34.1	34.1	34.1	91	31.8	2	7	90	0.00	29.924 
14:50	34.1	34.1	34.1	91	31.8	2	5	90	0.00	29.924 
14:55	34.1	34.1	34.1	91	31.8	2	6	90	0.00	29.924 
15:00	34.3	34.3	34.3	91	32.0	1	3	90	0.00	29.926 
15:05	34.1	34.1	34.1	91	31.8	2	5	90	0.00	29.926 
15:10	34.1	34.1	34.1	91	31.8	1	4	90	0.00	29.926 
15:15	34.0	34.0	34.0	91	31.7	2	5	90	0.00	29.929 
15:20	34.0	34.0	34.0	91	31.7	1	4	90	0.00	29.929 
15:25	33.7	33.7	33.7	91	31.4	3	7	90	0.00	29.929 
15:30	33.7	33.7	33.7	91	31.4	1	5	90	0.00	29.933 
15:35	33.5	33.5	33.5	91	31.2	2	4	90	0.00	29.933 
15:40	33.5	33.5	33.5	92	31.4	2	6	90	0.00	29.933 
15:45	33.5	33.5	33.5	92	31.4	2	7	90	0.00	29.930 
15:50	33.4	33.4	33.4	92	31.3	3	7	90	0.00	29.930 
15:55	33.4	33.4	33.4	92	31.3	1	5	90	0.00	29.930 
16:00	33.4	33.4	33.4	92	31.3	1	3	90	0.00	29.942 
16:05	33.4	33.4	33.4	92	31.3	1	5	90	0.00	29.942 
16:10	33.2	33.2	33.2	92	31.1	2	6	90	0.00	29.942 
16:15	33.2	33.2	33.2	92	31.1	2	6	90	0.00	29.946 
16:20	33.1	33.1	33.1	92	31.0	2	5	90	0.00	29.946 
16:25	33.1	33.1	33.1	92	31.0	2	5	90	0.00	29.946 
16:30	32.9	32.9	32.9	92	30.8	1	4	90	0.00	29.946 
16:35	32.9	32.9	32.9	92	30.8	1	5	90	0.00	29.946 
16:40	32.9	32.9	32.9	92	30.8	1	4	90	0.00	29.946 
16:45	32.9	32.9	32.9	92	30.8	2	6	90	0.00	29.948 
16:50	32.9	32.9	32.9	92	30.8	2	5	90	0.00	29.948 
16:55	32.9	32.9	32.9	92	30.8	2	5	90	0.00	29.948 
17:00	32.8	32.8	32.8	92	30.7	3	5	90	0.00	29.959 
17:05	32.7	32.7	32.7	92	30.6	3	7	90	0.00	29.959 
17:10	32.7	32.7	32.7	92	30.6	2	4	90	0.00	29.959 
17:15	32.5	32.5	32.5	92	30.4	3	6	90	0.00	29.962 
17:20	32.4	32.4	32.4	92	30.3	2	5	90	0.00	29.962 
17:25	32.4	32.4	32.4	92	30.3	2	5	90	0.00	29.962 
17:30	32.4	32.4	32.4	92	30.3	2	4	90	0.00	29.965 
17:35	32.2	32.2	32.2	92	30.1	2	6	90	0.00	29.965 
17:40	32.2	32.2	32.2	92	30.1	1	6	90	0.00	29.965 
17:45	32.1	32.1	32.1	92	30.0	3	10	90	0.00	29.975 
17:50	31.9	31.9	31.9	92	29.8	3	9	112	0.00	29.975 
17:55	31.8	31.8	31.8	93	30.0	2	4	90	0.00	29.975 
18:00	31.8	31.8	31.8	93	30.0	3	6	90	0.00	29.976 
18:05	31.8	31.8	31.8	93	30.0	3	7	90	0.00	29.976 
18:10	31.8	31.8	31.8	93	30.0	2	5	90	0.00	29.976 
18:15	31.8	31.8	31.8	93	30.0	1	4	90	0.00	29.978 
18:20	31.8	31.8	31.8	93	30.0	1	7	90	0.00	29.978 
18:25	31.8	31.8	31.8	93	30.0	1	4	90	0.00	29.978 
18:30	31.8	31.8	31.8	93	30.0	2	5	90	0.00	29.979 
18:35	31.8	31.8	31.8	93	30.0	2	5	90	0.00	29.979 
18:40	31.8	31.8	31.8	93	30.0	2	3	90	0.00	29.979 
18:45	31.8	31.8	31.8	93	30.0	2	5	90	0.00	29.980 
18:50	31.6	31.6	31.6	93	29.8	2	5	90	0.00	29.980 
18:55	31.6	31.6	31.6	93	29.8	3	7	90	0.00	29.980 
19:00	31.6	31.6	31.6	92	29.5	3	7	112	0.00	29.989 
19:05	31.6	31.6	31.6	92	29.5	2	6	112	0.00	29.989 
19:10	31.6	31.6	31.6	92	29.5	3	7	90	0.00	29.989 
19:15	31.6	31.6	31.6	92	29.5	2	6	90	0.00	29.991 
19:20	31.6	31.6	31.6	92	29.5	3	8	90	0.00	29.991 
19:25	31.6	31.6	31.6	92	29.5	3	8	90	0.00	29.991 
19:30	31.5	31.5	31.5	92	29.4	3	7	90	0.00	29.992 
19:35	31.5	31.5	31.5	92	29.4	2	7	90	0.00	29.992 
19:40	31.6	31.6	31.6	92	29.5	2	7	90	0.00	29.992 
19:45	31.6	31.6	31.6	92	29.5	2	5	90	0.00	29.992 
19:50	31.6	31.6	31.6	92	29.5	3	7	68	0.00	29.992 
19:55	31.5	31.5	31.5	92	29.4	3	6	90	0.00	29.992 
20:00	31.6	31.6	31.6	92	29.5	2	6	112	0.00	29.991 
20:05	31.5	31.5	31.5	92	29.4	3	7	90	0.00	29.991 
20:10	31.5	31.5	31.5	92	29.4	2	5	90	0.00	29.991 
20:15	31.5	31.5	31.5	92	29.4	2	5	68	0.00	29.991 
20:20	31.5	31.5	31.5	92	29.4	2	6	90	0.00	29.991 
20:25	31.5	31.5	31.5	92	29.4	1	3	90	0.00	29.991 
20:30	31.5	31.5	31.5	92	29.4	2	6	90	0.00	29.991 
20:35	31.5	31.5	31.5	92	29.4	1	4	90	0.00	29.991 
20:40	31.5	31.5	31.5	92	29.4	2	5	90	0.00	29.991 
20:45	31.5	31.5	31.5	92	29.4	2	4	90	0.00	29.990 
20:50	31.3	31.3	31.3	92	29.3	3	7	90	0.00	29.990 
20:55	31.3	31.3	31.3	92	29.3	1	4	90	0.00	29.990 
21:00	31.3	31.3	31.3	92	29.3	1	6	90	0.00	29.993 
21:05	31.3	31.3	31.3	92	29.3	1	4	90	0.00	29.993 
21:10	31.3	31.3	31.3	92	29.3	2	5	90	0.00	29.993 
21:15	31.2	31.2	31.2	92	29.2	2	6	90	0.00	29.992 
21:20	31.2	31.2	31.2	92	29.2	2	6	90	0.00	29.992 
21:25	31.2	31.2	31.2	92	29.2	1	5	90	0.00	29.992 
21:30	31.2	31.2	31.2	92	29.2	2	5	90	0.00	29.993 
21:35	31.0	31.0	31.0	92	29.0	2	6	90	0.00	29.993 
21:40	31.0	31.0	31.0	92	29.0	1	5	90	0.00	29.993 
21:45	31.0	31.0	31.0	91	28.7	2	5	90	0.00	29.991 
21:50	31.0	31.0	31.0	91	28.7	1	4	90	0.00	29.991 
21:55	30.9	30.9	30.9	91	28.6	2	5	90	0.00	29.991 
22:00	30.9	30.9	30.9	91	28.6	2	5	90	0.00	29.992 
22:05	30.9	30.9	30.9	91	28.6	2	5	90	0.00	29.992 
22:10	30.9	30.9	30.9	91	28.6	2	4	90	0.00	29.992 
22:15	30.9	30.9	30.9	91	28.6	3	6	90	0.00	29.993 
22:20	30.9	30.9	30.9	91	28.6	1	5	90	0.00	29.993 
22:25	30.9	30.9	30.9	91	28.6	2	5	90	0.00	29.993 
22:30	30.9	30.9	30.9	91	28.6	2	6	90	0.00	29.992 
22:35	30.9	30.9	30.9	91	28.6	1	4	90	0.00	29.992 
22:40	30.9	30.9	30.9	91	28.6	2	5	90	0.00	29.992 
22:45	30.9	30.9	30.9	91	28.6	1	4	90	0.00	29.992 
22:50	30.9	30.9	30.9	91	28.6	1	5	90	0.00	29.992 
22:55	30.9	30.9	30.9	91	28.6	2	5	90	0.00	29.992 
23:00	30.9	30.9	30.9	91	28.6	1	4	90	0.00	29.993 
23:05	30.9	30.9	30.9	91	28.6	1	5	90	0.00	29.993 
23:10	30.9	30.9	30.9	91	28.6	2	5	90	0.00	29.993 
23:15	30.9	30.9	30.9	91	28.6	1	5	90	0.00	29.992 
23:20	30.7	30.7	30.7	91	28.4	2	5	90	0.00	29.992 
23:25	30.7	30.7	30.7	91	28.4	1	3	90	0.00	29.992 
23:30	30.7	30.7	30.7	91	28.4	2	5	90	0.00	29.993 
23:35	30.7	30.7	30.7	91	28.4	2	4	90	0.00	29.993 
23:40	30.7	30.7	30.7	91	28.4	2	5	90	0.00	29.993 
23:45	30.7	30.7	30.7	91	28.4	2	5	90	0.00	29.991 
23:50	30.7	30.7	30.7	91	28.4	1	4	90	0.00	29.991 
23:55	30.7	30.7	30.7	91	28.4	2	5	90	0.00	29.991 

CoCoRaHS
IN-AL-39
A2 Web Hosting
Creative Commons License
GoDaddy
search engine by freefind advanced

loaded 2018-11-16 01:07:56 • last modified 2010-11-18 10:43:29
Privacy PolicyDisclaimer
• wx.awcolley.com is powered by PmWiki v.2002016 •
• all content (unless otherwise noted) © 2018 A W Colley